createdAt,value
2022-08-22T00:00:16.316Z,1.67
2022-08-22T00:02:58.816Z,1.60
2022-08-22T00:03:17.685Z,1.60
2022-08-22T00:05:45.246Z,1.65
2022-08-22T00:08:35.367Z,1.50
2022-08-22T00:11:18.456Z,1.67
2022-08-22T00:14:01.686Z,1.70
2022-08-22T00:17:00.492Z,1.70
2022-08-22T00:19:54.698Z,1.60
2022-08-22T00:22:47.800Z,1.52
2022-08-22T00:25:44.674Z,1.70
2022-08-22T00:29:07.023Z,1.60
2022-08-22T00:31:52.753Z,2.40
2022-08-22T00:34:36.257Z,1.90
2022-08-22T00:37:21.716Z,1.70
2022-08-22T00:40:35.917Z,1.80
2022-08-22T00:43:21.490Z,1.80
2022-08-22T00:46:10.393Z,1.70
2022-08-22T00:48:49.217Z,1.80
2022-08-22T00:51:34.874Z,1.58
2022-08-22T00:54:17.416Z,1.80
2022-08-22T00:57:15.959Z,1.80
2022-08-22T01:00:13.712Z,1.60
2022-08-22T01:03:18.455Z,1.67
2022-08-22T01:06:20.634Z,1.67
2022-08-22T01:08:53.326Z,1.67
2022-08-22T01:11:52.757Z,1.70
2022-08-22T01:14:37.870Z,1.80
2022-08-22T01:17:35.368Z,1.50
2022-08-22T01:20:17.548Z,1.60
2022-08-22T01:23:24.748Z,1.67
2022-08-22T01:26:30.455Z,1.80
2022-08-22T01:29:16.087Z,1.88
2022-08-22T01:32:11.255Z,1.80
2022-08-22T01:34:47.075Z,1.85
2022-08-22T01:37:43.720Z,1.60
2022-08-22T01:40:54.022Z,1.70
2022-08-22T01:44:00.227Z,1.60
2022-08-22T01:46:54.189Z,1.73
2022-08-22T01:49:49.003Z,1.70
2022-08-22T01:52:19.920Z,1.90
2022-08-22T01:54:58.506Z,2.00
2022-08-22T01:57:34.453Z,1.73
2022-08-22T02:00:09.396Z,1.80
2022-08-22T02:03:22.642Z,1.85
2022-08-22T02:06:24.413Z,1.73
2022-08-22T02:09:04.447Z,1.70
2022-08-22T02:11:50.030Z,1.67
2022-08-22T02:14:40.360Z,1.80
2022-08-22T02:17:22.072Z,1.80
2022-08-22T02:19:58.649Z,2.20
2022-08-22T02:22:31.739Z,1.90
2022-08-22T02:25:17.174Z,1.98
2022-08-22T02:27:54.725Z,1.65
2022-08-22T02:30:41.505Z,1.98
2022-08-22T02:33:13.395Z,2.00
2022-08-22T02:35:56.569Z,1.70
2022-08-22T02:38:40.865Z,1.90
2022-08-22T02:41:07.661Z,1.90
2022-08-22T02:43:41.055Z,1.80
2022-08-22T02:46:23.316Z,2.20
2022-08-22T02:49:04.509Z,2.13
2022-08-22T02:51:49.910Z,1.65
2022-08-22T02:54:26.815Z,1.98
2022-08-22T02:57:11.426Z,1.80
2022-08-22T03:00:31.334Z,1.80
2022-08-22T03:02:59.881Z,2.03
2022-08-22T03:05:49.204Z,2.55
2022-08-22T03:08:35.545Z,2.00
2022-08-22T03:11:17.095Z,1.92
2022-08-22T03:14:16.531Z,1.90
2022-08-22T03:17:09.796Z,1.95
2022-08-22T03:20:12.765Z,1.70
2022-08-22T03:22:51.239Z,2.10
2022-08-22T03:25:48.668Z,1.92
2022-08-22T03:28:29.050Z,2.00
2022-08-22T03:31:09.810Z,1.80
2022-08-22T03:33:38.364Z,1.80
2022-08-22T03:36:27.113Z,1.90
2022-08-22T03:39:14.963Z,1.70
2022-08-22T03:41:50.506Z,1.73
2022-08-22T03:44:38.980Z,1.67
2022-08-22T03:47:19.492Z,1.90
2022-08-22T03:49:59.361Z,1.90
2022-08-22T03:53:18.766Z,1.70
2022-08-22T03:55:46.066Z,1.90
2022-08-22T03:58:40.863Z,1.98
2022-08-22T04:01:35.103Z,2.00
2022-08-22T04:07:32.284Z,1.85
2022-08-22T04:10:15.340Z,1.80
2022-08-22T04:13:10.099Z,1.90
2022-08-22T04:15:57.186Z,1.83
2022-08-22T04:18:45.557Z,2.10
2022-08-22T04:21:18.361Z,2.05
2022-08-22T04:24:06.114Z,2.00
2022-08-22T04:26:50.065Z,1.85
2022-08-22T04:29:17.056Z,2.08
2022-08-22T04:32:05.422Z,2.10
2022-08-22T04:34:43.203Z,2.10
2022-08-22T04:37:22.455Z,2.10
2022-08-22T04:40:02.214Z,2.33
2022-08-22T04:42:34.990Z,2.40
2022-08-22T04:45:33.684Z,2.33
2022-08-22T04:48:19.458Z,2.20
2022-08-22T04:51:03.234Z,2.38
2022-08-22T04:53:48.233Z,2.28
2022-08-22T04:56:42.106Z,2.13
2022-08-22T04:59:12.642Z,2.30
2022-08-22T05:01:44.647Z,2.40
2022-08-22T05:04:21.131Z,2.28
2022-08-22T05:07:00.735Z,2.40
2022-08-22T05:09:32.608Z,2.50
2022-08-22T05:12:05.916Z,2.63
2022-08-22T05:14:48.650Z,2.40
2022-08-22T05:17:22.461Z,2.38
2022-08-22T05:19:53.488Z,2.40
2022-08-22T05:22:27.171Z,2.10
2022-08-22T05:25:01.179Z,2.40
2022-08-22T05:27:44.699Z,2.40
2022-08-22T05:30:16.408Z,2.60
2022-08-22T05:33:18.626Z,2.10
2022-08-22T05:35:58.039Z,2.40
2022-08-22T05:38:32.188Z,2.42
2022-08-22T05:41:08.620Z,2.22
2022-08-22T05:43:43.101Z,2.45
2022-08-22T05:46:27.112Z,2.85
2022-08-22T05:49:00.422Z,2.63
2022-08-22T05:51:48.746Z,2.65
2022-08-22T05:54:34.275Z,2.72
2022-08-22T05:57:24.075Z,2.35
2022-08-22T06:00:01.545Z,2.60
2022-08-22T06:02:51.638Z,2.20
2022-08-22T06:05:30.800Z,2.40
2022-08-22T06:08:25.947Z,2.17
2022-08-22T06:11:01.457Z,2.30
2022-08-22T06:13:47.242Z,2.28
2022-08-22T06:16:21.584Z,2.33
2022-08-22T06:18:50.704Z,2.38
2022-08-22T06:21:39.646Z,2.25
2022-08-22T06:24:13.178Z,1.98
2022-08-22T06:26:48.876Z,2.30
2022-08-22T06:29:32.490Z,2.67
2022-08-22T06:32:03.415Z,2.33
2022-08-22T06:34:37.275Z,2.50
2022-08-22T06:37:08.288Z,2.40
2022-08-22T06:39:39.481Z,2.28
2022-08-22T06:42:15.992Z,2.45
2022-08-22T06:44:45.505Z,2.20
2022-08-22T06:47:33.526Z,2.20
2022-08-22T06:50:06.765Z,2.50
2022-08-22T06:53:18.374Z,2.60
2022-08-22T06:55:54.767Z,2.20
2022-08-22T06:58:32.319Z,2.50
2022-08-22T07:01:12.701Z,2.78
2022-08-22T07:03:46.101Z,2.50
2022-08-22T07:06:19.607Z,2.72
2022-08-22T07:08:52.849Z,2.60
2022-08-22T07:11:34.752Z,2.15
2022-08-22T07:14:06.350Z,1.95
2022-08-22T07:16:52.129Z,2.30
2022-08-22T07:19:30.756Z,2.80
2022-08-22T07:22:00.160Z,2.20
2022-08-22T07:24:32.809Z,2.10
2022-08-22T07:27:22.668Z,2.58
2022-08-22T07:30:10.842Z,2.38
2022-08-22T07:32:55.559Z,2.63
2022-08-22T07:35:53.133Z,2.28
2022-08-22T07:38:20.703Z,1.83
2022-08-22T07:40:50.458Z,2.10
2022-08-22T07:43:32.255Z,1.67
2022-08-22T07:46:08.353Z,1.70
2022-08-22T07:49:09.142Z,1.80
2022-08-22T07:51:51.425Z,1.00
2022-08-22T07:54:27.151Z,1.38
2022-08-22T07:57:03.047Z,1.00
2022-08-22T07:59:33.198Z,1.10
2022-08-22T08:02:02.160Z,1.10
2022-08-22T08:04:40.248Z,1.10
2022-08-22T08:07:09.978Z,1.10
2022-08-22T08:09:56.772Z,1.00
2022-08-22T08:12:35.041Z,1.08
2022-08-22T08:15:04.788Z,0.80
2022-08-22T08:17:34.875Z,0.90
2022-08-22T08:20:10.679Z,1.00
2022-08-22T08:22:40.269Z,1.00
2022-08-22T08:25:08.889Z,0.95
2022-08-22T08:27:57.281Z,0.98
2022-08-22T08:30:34.660Z,0.60
2022-08-22T08:33:24.271Z,0.93
2022-08-22T08:36:02.305Z,0.90
2022-08-22T08:38:38.140Z,0.90
2022-08-22T08:41:23.825Z,0.90
2022-08-22T08:44:33.947Z,1.17
2022-08-22T08:47:19.575Z,0.98
2022-08-22T08:50:07.114Z,0.70
2022-08-22T08:52:53.064Z,0.77
2022-08-22T08:55:22.563Z,0.90
2022-08-22T08:58:30.168Z,0.70
2022-08-22T09:01:16.887Z,1.40
2022-08-22T09:03:52.475Z,1.00
2022-08-22T09:06:34.653Z,0.82
2022-08-22T09:09:23.600Z,1.23
2022-08-22T09:12:30.565Z,1.13
2022-08-22T09:15:00.397Z,0.93
2022-08-22T09:18:08.520Z,0.95
2022-08-22T09:21:01.416Z,1.10
2022-08-22T09:23:37.760Z,1.20
2022-08-22T09:26:09.619Z,1.10
2022-08-22T09:28:48.885Z,1.00
2022-08-22T09:31:47.545Z,1.20
2022-08-22T09:34:45.199Z,1.00
2022-08-22T09:37:25.228Z,1.27
2022-08-22T09:39:57.821Z,1.25
2022-08-22T09:42:39.771Z,1.00
2022-08-22T09:45:15.002Z,1.10
2022-08-22T09:47:47.970Z,1.00
2022-08-22T09:50:37.114Z,0.82
2022-08-22T09:54:00.369Z,0.80
2022-08-22T09:56:50.481Z,0.70
2022-08-22T09:59:33.805Z,0.70
2022-08-22T10:02:22.062Z,0.70
2022-08-22T10:05:04.129Z,0.73
2022-08-22T10:08:12.891Z,1.13
2022-08-22T10:11:00.593Z,0.60
2022-08-22T10:14:00.797Z,1.10
2022-08-22T10:16:46.964Z,0.60
2022-08-22T10:19:26.196Z,0.60
2022-08-22T10:22:14.612Z,0.80
2022-08-22T10:24:58.670Z,0.68
2022-08-22T10:27:54.912Z,0.90
2022-08-22T10:30:36.199Z,1.00
2022-08-22T10:33:35.233Z,0.82
2022-08-22T10:36:07.449Z,0.90
2022-08-22T10:38:50.900Z,0.68
2022-08-22T10:41:48.722Z,0.75
2022-08-22T10:44:26.652Z,0.90
2022-08-22T10:47:21.268Z,0.85
2022-08-22T10:49:56.707Z,0.90
2022-08-22T10:52:31.860Z,0.82
2022-08-22T10:55:17.903Z,0.70
2022-08-22T10:57:47.371Z,0.75
2022-08-22T11:00:50.104Z,1.17
2022-08-22T11:03:39.450Z,0.80
2022-08-22T11:06:15.909Z,0.85
2022-08-22T11:09:01.419Z,0.90
2022-08-22T11:12:11.601Z,0.90
2022-08-22T11:14:52.384Z,0.80
2022-08-22T11:18:02.476Z,0.95
2022-08-22T11:20:54.875Z,1.00
2022-08-22T11:23:44.743Z,1.08
2022-08-22T11:26:29.894Z,0.88
2022-08-22T11:29:38.716Z,0.73
2022-08-22T11:32:25.558Z,0.75
2022-08-22T11:35:08.831Z,0.98
2022-08-22T11:37:56.385Z,0.93
2022-08-22T11:40:27.591Z,1.23
2022-08-22T11:43:39.164Z,0.90
2022-08-22T11:46:23.942Z,1.00
2022-08-22T11:49:26.944Z,0.75
2022-08-22T11:52:10.682Z,0.70
2022-08-22T11:54:49.457Z,0.80
2022-08-22T11:57:41.689Z,0.70
2022-08-22T12:00:38.112Z,0.80
2022-08-22T12:03:37.822Z,0.95
2022-08-22T12:06:35.326Z,0.80
2022-08-22T12:09:25.008Z,1.20
2022-08-22T12:12:06.881Z,0.85
2022-08-22T12:14:42.836Z,0.70
2022-08-22T12:20:24.562Z,0.80
2022-08-22T12:23:09.558Z,1.13
2022-08-22T12:25:59.407Z,0.90
2022-08-22T12:28:32.470Z,1.15
2022-08-22T12:31:14.328Z,1.05
2022-08-22T12:33:52.851Z,0.90
2022-08-22T12:36:59.020Z,0.70
2022-08-22T12:39:34.853Z,0.85
2022-08-22T12:42:07.594Z,0.95
2022-08-22T12:44:46.289Z,0.75
2022-08-22T12:47:28.375Z,0.77
2022-08-22T12:50:20.834Z,1.13
2022-08-22T12:52:54.375Z,0.90
2022-08-22T12:55:29.916Z,1.00
2022-08-22T12:58:17.688Z,0.80
2022-08-22T13:00:47.421Z,0.98
2022-08-22T13:03:35.371Z,0.80
2022-08-22T13:06:07.716Z,0.95
2022-08-22T13:08:45.696Z,0.77
2022-08-22T13:11:17.462Z,0.60
2022-08-22T13:13:56.511Z,0.70
2022-08-22T13:16:26.359Z,0.73
2022-08-22T13:19:07.687Z,0.60
2022-08-22T13:21:40.360Z,0.65
2022-08-22T13:24:16.967Z,1.17
2022-08-22T13:26:56.865Z,1.00
2022-08-22T13:29:42.732Z,0.65
2022-08-22T13:32:23.622Z,0.85
2022-08-22T13:34:56.797Z,0.80
2022-08-22T13:37:46.493Z,0.70
2022-08-22T13:40:31.602Z,0.80
2022-08-22T13:43:09.824Z,0.80
2022-08-22T13:45:40.352Z,0.60
2022-08-22T13:48:11.932Z,1.00
2022-08-22T13:51:08.026Z,0.80
2022-08-22T13:53:49.366Z,0.73
2022-08-22T13:56:36.410Z,0.70
2022-08-22T13:59:07.332Z,0.93
2022-08-22T14:01:49.568Z,0.88
2022-08-22T14:04:36.688Z,0.95
2022-08-22T14:07:06.576Z,1.10
2022-08-22T14:09:54.220Z,1.17
2022-08-22T14:12:49.916Z,1.13
2022-08-22T14:15:32.207Z,0.93
2022-08-22T14:18:36.319Z,0.82
2022-08-22T14:21:25.133Z,0.90
2022-08-22T14:23:58.607Z,1.10
2022-08-22T14:26:37.217Z,0.80
2022-08-22T14:29:13.379Z,0.90
2022-08-22T14:31:40.825Z,1.30
2022-08-22T14:34:14.171Z,1.20
2022-08-22T14:37:13.014Z,1.70
2022-08-22T14:39:48.001Z,0.90
2022-08-22T14:42:23.037Z,0.88
2022-08-22T14:45:08.706Z,1.00
2022-08-22T14:47:55.070Z,0.93
2022-08-22T14:50:55.626Z,0.90
2022-08-22T14:53:29.948Z,1.00
2022-08-22T14:58:29.934Z,0.95
2022-08-22T15:01:06.597Z,1.08
2022-08-22T15:03:38.770Z,1.10
2022-08-22T15:06:29.736Z,1.10
2022-08-22T15:08:57.839Z,0.93
2022-08-22T15:11:31.898Z,1.13
2022-08-22T15:14:15.964Z,1.10
2022-08-22T15:16:55.389Z,1.02
2022-08-22T15:19:47.367Z,1.08
2022-08-22T15:22:27.689Z,0.95
2022-08-22T15:25:13.464Z,1.00
2022-08-22T15:28:05.128Z,1.10
2022-08-22T15:30:38.619Z,0.93
2022-08-22T15:33:16.183Z,1.00
2022-08-22T15:35:45.770Z,1.00
2022-08-22T15:38:28.147Z,1.00
2022-08-22T15:40:56.560Z,1.10
2022-08-22T15:43:28.826Z,1.23
2022-08-22T15:46:26.916Z,1.00
2022-08-22T15:49:11.043Z,1.10
2022-08-22T15:51:43.034Z,1.20
2022-08-22T15:54:24.647Z,1.08
2022-08-22T15:56:52.731Z,0.93
2022-08-22T15:59:25.384Z,0.93
2022-08-22T16:02:15.706Z,1.27
2022-08-22T16:04:47.437Z,0.90
2022-08-22T16:07:34.401Z,1.00
2022-08-22T16:10:06.357Z,1.20
2022-08-22T16:12:45.703Z,1.20
2022-08-22T16:15:46.698Z,1.10
2022-08-22T16:18:36.911Z,0.90
2022-08-22T16:21:12.344Z,1.25
2022-08-22T16:23:53.556Z,1.08
2022-08-22T16:26:24.912Z,1.42
2022-08-22T16:29:07.007Z,1.20
2022-08-22T16:31:46.124Z,1.20
2022-08-22T16:34:16.198Z,1.30
2022-08-22T16:36:43.253Z,1.20
2022-08-22T16:39:47.954Z,1.15
2022-08-22T16:42:20.632Z,1.10
2022-08-22T16:44:58.552Z,1.20
2022-08-22T16:47:34.203Z,1.58
2022-08-22T16:50:21.872Z,1.05
2022-08-22T16:52:52.113Z,1.00
2022-08-22T16:55:31.074Z,1.00
2022-08-22T16:58:11.474Z,1.40
2022-08-22T17:00:48.748Z,1.15
2022-08-22T17:03:46.249Z,1.30
2022-08-22T17:06:37.906Z,1.20
2022-08-22T17:09:36.367Z,1.27
2022-08-22T17:12:27.734Z,1.20
2022-08-22T17:15:25.178Z,1.02
2022-08-22T17:18:10.811Z,1.20
2022-08-22T17:21:17.099Z,1.25
2022-08-22T17:23:56.765Z,0.90
2022-08-22T17:26:35.994Z,1.10
2022-08-22T17:29:15.498Z,1.00
2022-08-22T17:32:04.548Z,0.98
2022-08-22T17:34:56.940Z,0.90
2022-08-22T17:37:46.146Z,1.05
2022-08-22T17:40:24.072Z,1.10
2022-08-22T17:43:03.531Z,1.00
2022-08-22T17:45:49.078Z,0.90
2022-08-22T17:48:19.721Z,1.00
2022-08-22T17:50:46.636Z,1.02
2022-08-22T17:53:41.593Z,1.08
2022-08-22T17:56:20.558Z,0.90
2022-08-22T17:59:21.128Z,0.70
2022-08-22T18:01:50.105Z,0.70
2022-08-22T18:04:43.293Z,0.60
2022-08-22T18:07:15.829Z,1.00
2022-08-22T18:09:53.989Z,0.80
2022-08-22T18:12:25.707Z,1.20
2022-08-22T18:15:02.931Z,1.10
2022-08-22T18:17:44.290Z,1.25
2022-08-22T18:20:20.613Z,1.45
2022-08-22T18:23:01.184Z,1.00
2022-08-22T18:25:54.568Z,0.93
2022-08-22T18:28:24.720Z,1.10
2022-08-22T18:31:05.654Z,1.20
2022-08-22T18:33:43.394Z,1.20
2022-08-22T18:36:30.970Z,1.08
2022-08-22T18:39:06.653Z,0.98
2022-08-22T18:41:33.754Z,1.10
2022-08-22T18:44:25.616Z,0.95
2022-08-22T18:46:59.120Z,0.90
2022-08-22T18:49:25.967Z,1.08
2022-08-22T18:52:09.123Z,1.00
2022-08-22T18:55:15.503Z,1.30
2022-08-22T18:57:53.087Z,1.40
2022-08-22T19:00:41.447Z,1.30
2022-08-22T19:03:39.480Z,1.25
2022-08-22T19:06:28.413Z,0.98
2022-08-22T19:09:07.670Z,0.98
2022-08-22T19:12:14.494Z,1.27
2022-08-22T19:15:12.791Z,1.23
2022-08-22T19:17:58.684Z,1.15
2022-08-22T19:20:49.636Z,1.40
2022-08-22T19:23:40.374Z,1.67
2022-08-22T19:26:41.496Z,2.05
2022-08-22T19:29:17.593Z,1.67
2022-08-22T19:31:48.090Z,1.52
2022-08-22T19:34:17.683Z,1.80
2022-08-22T19:36:46.563Z,1.88
2022-08-22T19:39:39.709Z,1.67
2022-08-22T19:42:12.895Z,1.60
2022-08-22T19:44:44.548Z,1.38
2022-08-22T19:47:17.611Z,1.35
2022-08-22T19:50:17.250Z,1.10
2022-08-22T19:52:57.997Z,0.88
2022-08-22T19:55:34.258Z,1.10
2022-08-22T19:58:07.699Z,1.00
2022-08-22T20:01:12.400Z,1.02
2022-08-22T20:03:54.110Z,1.00
2022-08-22T20:06:43.002Z,0.93
2022-08-22T20:09:20.767Z,1.00
2022-08-22T20:11:52.658Z,1.17
2022-08-22T20:14:30.359Z,1.27
2022-08-22T20:17:30.396Z,0.90
2022-08-22T20:20:17.719Z,1.00
2022-08-22T20:23:03.672Z,0.80
2022-08-22T20:25:57.972Z,0.77
2022-08-22T20:28:38.807Z,0.85
2022-08-22T20:31:12.244Z,1.10
2022-08-22T20:33:42.473Z,1.00
2022-08-22T20:36:27.495Z,1.10
2022-08-22T20:39:06.327Z,0.93
2022-08-22T20:41:44.539Z,1.10
2022-08-22T20:44:19.802Z,1.00
2022-08-22T20:46:54.879Z,0.90
2022-08-22T20:49:46.993Z,1.00
2022-08-22T20:52:19.857Z,0.82
2022-08-22T20:55:31.498Z,0.80
2022-08-22T20:58:02.607Z,0.70
2022-08-22T21:01:00.146Z,0.80
2022-08-22T21:03:30.997Z,0.90
2022-08-22T21:06:23.209Z,0.70
2022-08-22T21:09:17.207Z,0.80
2022-08-22T21:11:51.341Z,0.90
2022-08-22T21:14:25.432Z,0.90
2022-08-22T21:16:53.179Z,0.80
2022-08-22T21:19:25.782Z,0.80
2022-08-22T21:21:53.118Z,0.82
2022-08-22T21:24:20.339Z,0.90
2022-08-22T21:27:00.061Z,0.82
2022-08-22T21:29:37.956Z,0.85
2022-08-22T21:32:26.177Z,0.85
2022-08-22T21:34:53.918Z,0.63
2022-08-22T21:37:32.171Z,0.80
2022-08-22T21:40:16.824Z,0.90
2022-08-22T21:42:58.194Z,0.75
2022-08-22T21:45:32.964Z,0.88
2022-08-22T21:50:38.033Z,0.80
2022-08-22T21:53:24.708Z,0.95
2022-08-22T21:56:14.484Z,0.90
2022-08-22T21:58:42.543Z,1.05
2022-08-22T22:01:30.381Z,0.90
2022-08-22T22:03:59.523Z,1.00
2022-08-22T22:06:27.426Z,0.73
2022-08-22T22:08:54.453Z,0.98
2022-08-22T22:11:21.425Z,0.70
2022-08-22T22:13:48.995Z,0.90
2022-08-22T22:16:27.064Z,0.90
2022-08-22T22:18:54.831Z,0.90
2022-08-22T22:21:21.874Z,0.80
2022-08-22T22:23:50.525Z,0.80
2022-08-22T22:26:17.559Z,0.90
2022-08-22T22:28:50.359Z,1.02
2022-08-22T22:31:18.720Z,1.00
2022-08-22T22:33:46.156Z,1.10
2022-08-22T22:36:18.453Z,0.90
2022-08-22T22:38:46.059Z,0.95
2022-08-22T22:41:13.167Z,0.85
2022-08-22T22:43:40.151Z,1.00
2022-08-22T22:46:07.229Z,1.20
2022-08-22T22:48:34.311Z,1.15
2022-08-22T22:51:08.803Z,0.90
2022-08-22T22:53:40.228Z,1.10
2022-08-22T22:56:09.958Z,0.80
2022-08-22T22:58:37.547Z,0.93
2022-08-22T23:01:18.214Z,0.90
2022-08-22T23:03:46.244Z,0.90
2022-08-22T23:06:20.374Z,1.00
2022-08-22T23:08:48.584Z,0.90
2022-08-22T23:11:19.219Z,0.90
2022-08-22T23:13:48.191Z,1.00
2022-08-22T23:16:18.673Z,0.90
2022-08-22T23:18:46.404Z,1.05
2022-08-22T23:21:27.059Z,1.20
2022-08-22T23:23:58.507Z,0.90
2022-08-22T23:26:26.337Z,1.33
2022-08-22T23:28:53.289Z,0.90
2022-08-22T23:31:28.652Z,1.00
2022-08-22T23:33:56.432Z,0.98
2022-08-22T23:36:24.052Z,0.93
2022-08-22T23:38:51.919Z,0.90
2022-08-22T23:41:21.403Z,1.00
2022-08-22T23:43:52.053Z,1.10
2022-08-22T23:46:21.649Z,1.10
2022-08-22T23:48:49.280Z,1.02
2022-08-22T23:51:22.938Z,1.20
2022-08-22T23:53:51.446Z,1.10
2022-08-22T23:56:33.455Z,1.20
2022-08-22T23:59:05.557Z,1.08
